createdAt,value
2022-11-25T00:02:05.565Z,98221.75
2022-11-25T00:07:07.424Z,98223.91
2022-11-25T00:12:09.239Z,98222.69
2022-11-25T00:17:11.044Z,98223.13
2022-11-25T00:22:12.836Z,98214.16
2022-11-25T00:27:14.612Z,98222.44
2022-11-25T00:32:16.508Z,98223.94
2022-11-25T00:37:18.531Z,98216.88
2022-11-25T00:42:39.055Z,98220.81
2022-11-25T00:47:40.963Z,98221.50
2022-11-25T00:52:42.785Z,98223.94
2022-11-25T00:57:44.532Z,98222.97
2022-11-25T01:02:48.361Z,98221.34
2022-11-25T01:07:50.217Z,98225.69
2022-11-25T01:12:52.095Z,98220.94
2022-11-25T01:17:53.871Z,98223.38
2022-11-25T01:22:55.678Z,98227.59
2022-11-25T01:27:57.520Z,98237.75
2022-11-25T01:32:59.545Z,98229.75
2022-11-25T01:38:02.060Z,98222.41
2022-11-25T01:43:03.788Z,98230.38
2022-11-25T01:48:15.078Z,98224.41
2022-11-25T01:53:20.860Z,98222.56
2022-11-25T02:03:57.893Z,98224.47
2022-11-25T02:09:04.980Z,98228.25
2022-11-25T02:14:08.684Z,98219.03
2022-11-25T02:19:23.610Z,98215.13
2022-11-25T02:24:34.761Z,98220.66
2022-11-25T02:29:37.900Z,98216.19
2022-11-25T02:34:50.916Z,98212.41
2022-11-25T02:39:55.176Z,98215.66
2022-11-25T02:44:57.183Z,98217.97
2022-11-25T02:49:59.239Z,98219.59
2022-11-25T02:55:01.045Z,98214.44
2022-11-25T03:00:04.437Z,98215.09
2022-11-25T03:05:06.296Z,98211.72
2022-11-25T03:10:08.182Z,98219.44
2022-11-25T03:15:10.754Z,98224.75
2022-11-25T03:20:13.239Z,98223.13
2022-11-25T03:25:16.650Z,98225.00
2022-11-25T03:30:22.997Z,98230.44
2022-11-25T03:35:27.832Z,98230.56
2022-11-25T03:40:29.738Z,98229.75
2022-11-25T03:45:31.599Z,98239.38
2022-11-25T03:50:36.866Z,98240.34
2022-11-25T03:55:38.649Z,98234.91
2022-11-25T04:00:40.729Z,98238.31
2022-11-25T04:05:42.672Z,98240.06
2022-11-25T04:10:44.644Z,98244.53
2022-11-25T04:15:49.422Z,98240.59
2022-11-25T04:20:52.632Z,98245.09
2022-11-25T04:25:55.405Z,98247.78
2022-11-25T04:31:08.459Z,98245.34
2022-11-25T04:36:13.663Z,98255.66
2022-11-25T04:41:16.171Z,98253.22
2022-11-25T04:46:25.059Z,98258.50
2022-11-25T04:51:27.078Z,98254.16
2022-11-25T04:56:33.752Z,98262.72
2022-11-25T05:01:35.817Z,98256.47
2022-11-25T05:06:47.039Z,98251.84
2022-11-25T05:11:49.932Z,98250.75
2022-11-25T05:16:52.561Z,98251.25
2022-11-25T05:21:54.875Z,98248.25
2022-11-25T05:26:57.262Z,98240.81
2022-11-25T05:31:59.760Z,98240.38
2022-11-25T05:37:01.639Z,98228.97
2022-11-25T05:42:04.990Z,98243.19
2022-11-25T05:47:07.026Z,98238.69
2022-11-25T05:52:09.625Z,98255.59
2022-11-25T05:57:21.715Z,98256.25
2022-11-25T06:02:33.811Z,98252.69
2022-11-25T06:07:36.786Z,98247.25
2022-11-25T06:12:39.303Z,98254.59
2022-11-25T06:17:41.420Z,98256.28
2022-11-25T06:22:49.333Z,98260.44
2022-11-25T06:28:12.522Z,98267.72
2022-11-25T06:33:16.960Z,98278.75
2022-11-25T06:38:21.147Z,98278.44
2022-11-25T06:43:22.965Z,98285.72
2022-11-25T06:48:25.101Z,98286.78
2022-11-25T06:53:27.824Z,98287.59
2022-11-25T06:58:36.234Z,98293.56
2022-11-25T07:03:38.633Z,98298.69
2022-11-25T07:08:41.646Z,98299.50
2022-11-25T07:13:44.597Z,98308.97
2022-11-25T07:18:46.818Z,98311.44
2022-11-25T07:23:50.333Z,98306.16
2022-11-25T07:28:54.726Z,98325.41
2022-11-25T07:34:03.723Z,98328.31
2022-11-25T07:39:17.427Z,98320.91
2022-11-25T07:44:22.061Z,98316.06
2022-11-25T07:49:27.016Z,98321.53
2022-11-25T07:54:29.820Z,98321.72
2022-11-25T07:59:32.050Z,98320.66
2022-11-25T08:04:34.309Z,98319.50
2022-11-25T08:09:36.376Z,98323.63
2022-11-25T08:14:38.404Z,98331.94
2022-11-25T08:19:40.634Z,98325.22
2022-11-25T08:24:43.127Z,98328.75
2022-11-25T08:29:45.058Z,98335.59
2022-11-25T08:34:46.909Z,98331.16
2022-11-25T08:39:52.916Z,98326.97
2022-11-25T08:44:57.735Z,98334.31
2022-11-25T08:50:00.004Z,98336.22
2022-11-25T08:55:02.055Z,98332.97
2022-11-25T09:00:08.047Z,98338.13
2022-11-25T09:05:13.051Z,98341.13
2022-11-25T09:10:17.687Z,98324.72
2022-11-25T09:15:19.541Z,98330.81
2022-11-25T09:20:21.915Z,98338.69
2022-11-25T09:25:23.726Z,98330.28
2022-11-25T09:30:26.260Z,98342.91
2022-11-25T09:35:28.264Z,98331.22
2022-11-25T09:40:44.118Z,98339.09
2022-11-25T09:46:17.194Z,98337.59
2022-11-25T09:51:24.415Z,98345.34
2022-11-25T09:56:44.096Z,98346.94
2022-11-25T10:01:52.530Z,98342.72
2022-11-25T10:07:01.433Z,98352.22
2022-11-25T10:12:28.137Z,98341.19
2022-11-25T10:17:36.209Z,98333.41
2022-11-25T10:22:43.147Z,98332.56
2022-11-25T10:28:02.491Z,98329.81
2022-11-25T10:33:25.145Z,98333.03
2022-11-25T10:38:39.985Z,98327.16
2022-11-25T10:43:42.895Z,98322.91
2022-11-25T10:48:50.372Z,98327.47
2022-11-25T10:54:13.833Z,98327.44
2022-11-25T10:59:27.465Z,98330.91
2022-11-25T11:04:29.685Z,98321.78
2022-11-25T11:09:36.812Z,98322.16
2022-11-25T11:14:38.837Z,98324.84
2022-11-25T11:19:41.150Z,98328.63
2022-11-25T11:24:42.968Z,98314.28
2022-11-25T11:29:44.755Z,98307.84
2022-11-25T11:35:02.915Z,98302.38
2022-11-25T11:40:07.693Z,98308.22
2022-11-25T11:45:24.869Z,98299.22
2022-11-25T11:50:29.653Z,98296.19
2022-11-25T11:56:11.945Z,98294.41
2022-11-25T12:01:31.074Z,98294.69
2022-11-25T12:06:35.573Z,98299.34
2022-11-25T12:11:44.382Z,98298.53
2022-11-25T12:16:56.017Z,98296.78
2022-11-25T12:22:13.700Z,98295.81
2022-11-25T12:27:36.587Z,98290.34
2022-11-25T12:32:38.590Z,98284.06
2022-11-25T12:38:04.746Z,98284.28
2022-11-25T12:43:11.248Z,98281.22
2022-11-25T12:48:17.293Z,98290.97
2022-11-25T12:53:35.911Z,98288.09
2022-11-25T12:58:49.853Z,98290.38
2022-11-25T13:04:36.056Z,98285.56
2022-11-25T13:10:07.553Z,98291.41
2022-11-25T13:15:33.672Z,98302.41
2022-11-25T13:20:43.854Z,98305.81
2022-11-25T13:25:48.285Z,98304.03
2022-11-25T13:30:52.358Z,98313.72
2022-11-25T13:35:55.814Z,98316.47
2022-11-25T13:41:16.462Z,98317.72
2022-11-25T13:46:45.885Z,98318.19
2022-11-25T13:51:54.083Z,98320.25
2022-11-25T13:57:11.058Z,98321.38
2022-11-25T14:02:28.256Z,98319.75
2022-11-25T14:07:36.637Z,98324.56
2022-11-25T14:13:02.394Z,98329.34
2022-11-25T14:19:16.901Z,98341.25
2022-11-25T14:24:38.992Z,98343.75
2022-11-25T14:29:48.971Z,98341.78
2022-11-25T14:35:00.007Z,98354.19
2022-11-25T14:40:07.221Z,98359.94
2022-11-25T14:45:25.017Z,98373.56
2022-11-25T14:50:34.776Z,98382.84
2022-11-25T14:55:38.129Z,98386.97
2022-11-25T15:01:08.003Z,98392.03
2022-11-25T15:06:14.488Z,98396.44
2022-11-25T15:11:20.174Z,98394.72
2022-11-25T15:16:26.526Z,98400.72
2022-11-25T15:21:53.903Z,98398.03
2022-11-25T15:27:02.983Z,98406.63
2022-11-25T15:32:05.145Z,98410.72
2022-11-25T15:37:11.767Z,98410.31
2022-11-25T15:42:21.957Z,98420.09
2022-11-25T15:47:32.129Z,98426.63
2022-11-25T15:52:38.436Z,98426.91
2022-11-25T15:57:42.128Z,98435.06
2022-11-25T16:02:44.040Z,98436.44
2022-11-25T16:07:52.321Z,98441.88
2022-11-25T16:13:23.067Z,98439.56
2022-11-25T16:18:40.720Z,98447.31
2022-11-25T16:23:53.054Z,98463.47
2022-11-25T16:29:00.901Z,98463.47
2022-11-25T16:34:21.014Z,98458.44
2022-11-25T16:39:22.805Z,98464.69
2022-11-25T16:44:27.348Z,98467.28
2022-11-25T16:49:32.007Z,98471.63
2022-11-25T16:54:34.059Z,98480.19
2022-11-25T16:59:41.583Z,98473.38
2022-11-25T17:04:43.601Z,98475.81
2022-11-25T17:09:46.603Z,98467.13
2022-11-25T17:14:49.353Z,98473.13
2022-11-25T17:19:52.216Z,98473.94
2022-11-25T17:24:54.497Z,98479.91
2022-11-25T17:30:00.048Z,98479.91
2022-11-25T17:35:02.104Z,98488.59
2022-11-25T17:40:04.281Z,98495.66
2022-11-25T17:45:18.667Z,98503.25
2022-11-25T17:50:25.970Z,98497.28
2022-11-25T17:55:28.055Z,98488.72
2022-11-25T18:00:33.691Z,98500.81
2022-11-25T18:05:35.462Z,98519.56
2022-11-25T18:10:39.519Z,98522.81
2022-11-25T18:15:41.604Z,98520.13
2022-11-25T18:20:43.777Z,98527.72
2022-11-25T18:25:46.501Z,98533.69
2022-11-25T18:30:49.716Z,98538.84
2022-11-25T18:35:52.031Z,98535.47
2022-11-25T18:40:55.347Z,98542.13
2022-11-25T18:45:59.300Z,98547.56
2022-11-25T18:51:02.396Z,98551.22
2022-11-25T18:56:05.358Z,98550.69
2022-11-25T19:01:13.292Z,98568.34
2022-11-25T19:06:15.482Z,98568.78
2022-11-25T19:11:29.515Z,98574.75
2022-11-25T19:16:31.450Z,98584.25
2022-11-25T19:21:34.078Z,98584.53
2022-11-25T19:26:43.380Z,98591.47
2022-11-25T19:31:45.787Z,98592.41
2022-11-25T19:36:47.625Z,98597.72
2022-11-25T19:41:49.469Z,98610.63
2022-11-25T19:52:19.672Z,98621.78
2022-11-25T19:57:24.167Z,98623.41
2022-11-25T20:02:29.632Z,98623.41
2022-11-25T20:07:32.354Z,98639.72
2022-11-25T20:12:34.292Z,98647.31
2022-11-25T20:17:37.734Z,98647.31
2022-11-25T20:22:44.538Z,98657.66
2022-11-25T20:27:46.589Z,98664.44
2022-11-25T20:32:48.562Z,98671.25
2022-11-25T20:37:58.248Z,98678.03
2022-11-25T20:43:00.710Z,98678.72
2022-11-25T20:48:02.635Z,98685.53
2022-11-25T20:53:04.893Z,98689.75
2022-11-25T20:58:17.670Z,98697.22
2022-11-25T21:03:19.592Z,98703.22
2022-11-25T21:08:24.676Z,98711.78
2022-11-25T21:13:29.660Z,98713.41
2022-11-25T21:18:31.648Z,98714.09
2022-11-25T21:23:36.699Z,98719.94
2022-11-25T21:28:42.570Z,98719.94
2022-11-25T21:33:46.208Z,98730.28
2022-11-25T21:38:51.663Z,98739.78
2022-11-25T21:43:53.544Z,98747.53
2022-11-25T21:48:55.254Z,98744.94
2022-11-25T21:53:57.203Z,98750.94
2022-11-25T21:59:01.865Z,98749.31
2022-11-25T22:04:03.597Z,98759.50
2022-11-25T22:09:05.451Z,98754.34
2022-11-25T22:14:39.748Z,98769.03
2022-11-25T22:19:42.419Z,98769.97
2022-11-25T22:24:45.166Z,98777.84
2022-11-25T22:29:47.494Z,98784.78
2022-11-25T22:34:49.251Z,98788.19
2022-11-25T22:39:51.592Z,98785.72
2022-11-25T22:44:56.072Z,98794.41
2022-11-25T22:49:58.299Z,98813.31
2022-11-25T22:55:16.581Z,98814.13
2022-11-25T23:00:38.610Z,98814.81
2022-11-25T23:05:40.938Z,98816.03
2022-11-25T23:10:44.209Z,98829.91
2022-11-25T23:15:49.807Z,98824.72
2022-11-25T23:20:51.532Z,98825.69
2022-11-25T23:25:54.586Z,98828.13
2022-11-25T23:30:58.574Z,98833.28
2022-11-25T23:36:06.088Z,98831.66
2022-11-25T23:41:15.888Z,98839.41
2022-11-25T23:46:23.078Z,98835.19
2022-11-25T23:51:27.408Z,98830.97
2022-11-25T23:56:29.215Z,98842.13
